Time;durP1;ratioP1;P1;durP2;ratioP2;P2;SDS_P1;SDS_P2;PMS_P1;PMS_P2;Temp;Humidity;BMP_temperature;BMP_pressure;BME280_temperature;BME280_humidity;BME280_pressure;Samples;Min_cycle;Max_cycle;Signal;HPM_P1;HPM_P2
2022/07/04 00:02:19;;;;;;;21.02;17.80;;;;;;;19.81;87.97;94795.00;1613152;88;21185;-53
2022/07/04 00:04:47;;;;;;;22.35;18.35;;;;;;;19.80;87.94;94799.06;1618103;88;21043;-52
2022/07/04 00:07:15;;;;;;;27.50;18.32;;;;;;;19.80;87.90;94806.04;1618571;88;21031;-53
2022/07/04 00:09:43;;;;;;;23.10;18.17;;;;;;;19.78;87.90;94796.63;1623197;88;21041;-53
2022/07/04 00:12:12;;;;;;;24.65;17.85;;;;;;;19.77;88.11;94804.23;1599564;88;21059;-53
2022/07/04 00:14:40;;;;;;;24.85;17.62;;;;;;;19.78;88.04;94800.17;1623250;88;21246;-52
2022/07/04 00:17:08;;;;;;;25.27;18.37;;;;;;;19.84;87.92;94802.36;1623168;88;21029;-53
2022/07/04 00:19:38;;;;;;;28.38;18.82;;;;;;;19.86;87.90;94800.44;1623270;88;21014;-52
2022/07/04 00:22:06;;;;;;;28.25;19.45;;;;;;;19.83;87.83;94793.85;1623290;88;20991;-52
2022/07/04 00:24:36;;;;;;;25.65;19.05;;;;;;;19.80;87.96;94789.91;1623303;88;20972;-52
2022/07/04 00:27:05;;;;;;;23.30;18.23;;;;;;;19.78;88.12;94791.80;1623422;88;21188;-53
2022/07/04 00:29:34;;;;;;;25.52;18.60;;;;;;;19.77;88.33;94793.71;1623195;88;21111;-52
2022/07/04 00:32:02;;;;;;;26.50;19.82;;;;;;;19.80;88.48;94789.28;1618691;88;21023;-53
2022/07/04 00:34:30;;;;;;;24.43;19.70;;;;;;;19.83;88.30;94788.27;1623323;88;21035;-52
2022/07/04 00:37:00;;;;;;;22.95;18.48;;;;;;;19.85;88.19;94791.31;1621849;88;21082;-53
2022/07/04 00:39:29;;;;;;;21.87;16.70;;;;;;;19.88;88.09;94793.09;1623229;88;21276;-52
2022/07/04 00:41:56;;;;;;;29.05;18.35;;;;;;;19.86;87.80;94788.65;1618660;87;21027;-53
2022/07/04 00:44:24;;;;;;;27.98;19.23;;;;;;;19.82;88.04;94776.97;1623364;88;20983;-52
2022/07/04 00:46:53;;;;;;;23.62;17.55;;;;;;;19.86;88.25;94785.86;1622053;88;21032;-52
2022/07/04 00:49:20;;;;;;;24.70;17.82;;;;;;;19.89;88.13;94783.44;1597845;88;21086;-53
2022/07/04 00:51:49;;;;;;;23.65;18.32;;;;;;;19.91;87.91;94787.89;1619927;88;21159;-53
2022/07/04 00:54:21;;;;;;;25.55;18.70;;;;;;;19.92;87.98;94778.23;1619550;88;20983;-54
2022/07/04 00:56:49;;;;;;;26.95;19.45;;;;;;;19.93;87.88;94789.53;1623481;88;21134;-53
2022/07/04 00:59:17;;;;;;;30.75;20.75;;;;;;;19.92;87.97;94779.63;1623366;88;20992;-52
2022/07/04 01:01:46;;;;;;;29.55;20.55;;;;;;;19.91;87.98;94787.89;1625432;88;20974;-53
2022/07/04 01:04:15;;;;;;;27.67;19.73;;;;;;;19.90;88.09;94784.97;1623565;88;21279;-52
2022/07/04 01:06:43;;;;;;;23.10;17.23;;;;;;;19.90;88.00;94777.98;1624114;88;21027;-53
2022/07/04 01:09:12;;;;;;;27.62;18.80;;;;;;;19.90;88.03;94781.42;1623583;88;21115;-53
2022/07/04 01:11:41;;;;;;;26.07;19.42;;;;;;;19.88;88.24;94780.52;1619447;88;21035;-53
2022/07/04 01:14:10;;;;;;;24.67;17.82;;;;;;;19.89;88.23;94770.88;1623438;88;21503;-53
2022/07/04 01:16:39;;;;;;;26.12;18.55;;;;;;;19.91;88.20;94771.13;1623354;88;21148;-52
2022/07/04 01:19:07;;;;;;;25.82;18.98;;;;;;;19.91;88.08;94773.92;1623597;88;21444;-52
2022/07/04 01:21:35;;;;;;;25.62;18.95;;;;;;;19.90;88.12;94769.61;1630216;87;21050;-53
2022/07/04 01:24:04;;;;;;;25.88;18.65;;;;;;;19.90;88.23;94769.61;1623325;87;21051;-52
2022/07/04 01:26:32;;;;;;;25.75;19.65;;;;;;;19.91;88.24;94772.52;1657749;85;21090;-53
2022/07/04 01:29:01;;;;;;;25.12;19.62;;;;;;;19.91;87.99;94768.98;1651635;85;21243;-53
2022/07/04 01:31:31;;;;;;;25.57;18.80;;;;;;;19.89;88.15;94774.32;1663492;84;21542;-55
2022/07/04 01:33:59;;;;;;;25.90;18.57;;;;;;;19.88;88.15;94769.97;1659635;84;20990;-53
2022/07/04 01:36:28;;;;;;;21.45;17.10;;;;;;;19.90;88.22;94771.00;1665462;84;20966;-53
2022/07/04 01:38:56;;;;;;;24.77;19.42;;;;;;;19.92;88.09;94772.65;1670899;85;20967;-52
2022/07/04 01:41:24;;;;;;;30.17;20.23;;;;;;;19.87;87.97;94770.63;1665537;84;21141;-54
2022/07/04 01:43:52;;;;;;;33.53;19.73;;;;;;;19.83;88.27;94770.12;1645253;85;20960;-52
2022/07/04 01:46:20;;;;;;;25.77;18.87;;;;;;;19.81;88.42;94767.08;1645743;85;20983;-54
2022/07/04 01:48:48;;;;;;;23.65;17.23;;;;;;;19.80;88.64;94769.73;1667870;85;21102;-53
2022/07/04 01:51:16;;;;;;;26.23;17.35;;;;;;;19.82;88.67;94773.41;1659406;85;21579;-52
2022/07/04 01:53:45;;;;;;;23.55;18.40;;;;;;;19.83;88.54;94771.52;1644665;85;21142;-53
2022/07/04 01:56:13;;;;;;;27.05;19.60;;;;;;;19.81;88.69;94769.87;1637871;85;21011;-53
2022/07/04 01:58:42;;;;;;;30.65;19.40;;;;;;;19.79;88.80;94772.41;1660483;85;21002;-53
2022/07/04 02:01:53;;;;;;;24.85;19.37;;;;;;;19.76;88.94;94780.37;1668147;84;21070;-53
2022/07/04 02:03:45;;;;;;;25.50;18.17;;;;;;;19.76;89.22;94776.19;1645094;85;20975;-53
2022/07/04 02:06:13;;;;;;;24.05;17.00;;;;;;;19.79;89.42;94772.41;1659026;85;21729;-53
2022/07/04 02:11:28;;;;;;;28.95;19.25;;;;;;;19.79;89.22;94772.41;1663904;85;20963;-54
2022/07/04 02:13:56;;;;;;;28.27;19.60;;;;;;;19.83;89.30;94773.53;1668549;85;21018;-53
2022/07/04 02:16:25;;;;;;;24.65;18.67;;;;;;;19.85;89.06;94776.58;1663638;85;21090;-53
2022/07/04 02:18:53;;;;;;;20.88;16.07;;;;;;;19.88;88.70;94782.54;1665951;84;21119;-52
2022/07/04 02:21:21;;;;;;;23.05;18.23;;;;;;;19.88;88.31;94777.73;1659607;84;21058;-54
2022/07/04 02:23:49;;;;;;;24.52;18.55;;;;;;;19.84;88.08;94785.61;1660207;84;21112;-53
2022/07/04 02:26:17;;;;;;;24.27;18.82;;;;;;;19.79;88.09;94781.41;1663854;85;21049;-53
2022/07/04 02:28:45;;;;;;;22.67;17.45;;;;;;;19.71;88.47;94788.77;1658347;85;21031;-53
2022/07/04 02:31:13;;;;;;;23.77;16.80;;;;;;;19.66;88.58;94793.68;1654181;85;21096;-53
2022/07/04 02:33:41;;;;;;;22.58;17.40;;;;;;;19.63;88.84;94788.49;1655919;85;21161;-53
2022/07/04 02:36:09;;;;;;;22.37;18.30;;;;;;;19.63;89.11;94785.70;1659410;85;21697;-53
2022/07/04 02:38:37;;;;;;;22.55;18.00;;;;;;;19.64;89.09;94790.64;1674566;85;20959;-53
2022/07/04 02:41:05;;;;;;;26.62;18.87;;;;;;;19.61;89.13;94784.05;1656782;85;21577;-53
2022/07/04 02:43:34;;;;;;;23.87;17.20;;;;;;;19.57;89.38;94794.67;1659027;85;21136;-52
2022/07/04 02:46:02;;;;;;;23.77;16.52;;;;;;;19.54;89.44;94789.36;1664716;85;21030;-53
2022/07/04 02:48:31;;;;;;;31.52;17.17;;;;;;;19.50;89.66;94789.59;1657963;85;21105;-53
2022/07/04 02:50:59;;;;;;;27.00;20.30;;;;;;;19.47;90.08;94792.00;1659919;84;21085;-54
2022/07/04 02:53:27;;;;;;;25.48;19.05;;;;;;;19.45;90.40;94795.16;1658643;84;21094;-53
2022/07/04 02:55:56;;;;;;;23.73;18.50;;;;;;;19.45;90.58;94788.95;1666496;84;21760;-52
2022/07/04 02:58:23;;;;;;;23.92;17.60;;;;;;;19.44;90.69;94793.63;1645625;85;21570;-52
2022/07/04 03:00:52;;;;;;;24.55;16.65;;;;;;;19.43;90.62;94794.90;1664972;85;21018;-54
2022/07/04 03:03:20;;;;;;;21.42;15.88;;;;;;;19.40;90.54;94803.63;1621747;86;21086;-54
2022/07/04 03:05:50;;;;;;;25.97;18.42;;;;;;;19.39;90.33;94799.32;1611074;87;21087;-53
2022/07/04 03:08:18;;;;;;;24.00;18.25;;;;;;;19.40;90.61;94800.84;1603096;88;21815;-52
2022/07/04 03:10:46;;;;;;;25.50;18.55;;;;;;;19.44;90.19;94795.03;1608386;88;21162;-53
2022/07/04 03:13:14;;;;;;;26.00;17.70;;;;;;;19.42;90.13;94796.17;1587926;88;21176;-52
2022/07/04 03:15:42;;;;;;;29.35;17.02;;;;;;;19.41;90.24;94802.36;1611516;88;21086;-53
2022/07/04 03:18:10;;;;;;;27.02;17.85;;;;;;;19.43;90.30;94808.85;1668786;84;21089;-52
2022/07/04 03:20:38;;;;;;;23.55;17.70;;;;;;;19.45;90.02;94802.13;1658284;85;21224;-53
2022/07/04 03:23:07;;;;;;;23.85;17.57;;;;;;;19.45;89.90;94803.53;1617124;86;21204;-54
2022/07/04 03:25:36;;;;;;;24.15;17.98;;;;;;;19.45;89.92;94804.30;1603571;88;21100;-53
2022/07/04 03:28:05;;;;;;;24.32;17.80;;;;;;;19.46;89.89;94799.47;1663774;84;21106;-53
2022/07/04 03:30:33;;;;;;;24.15;18.32;;;;;;;19.47;89.54;94810.14;1673674;84;21034;-53
2022/07/04 03:33:03;;;;;;;24.77;19.12;;;;;;;19.43;89.44;94805.44;1660130;84;21188;-51
2022/07/04 03:35:31;;;;;;;24.55;18.05;;;;;;;19.38;89.75;94804.77;1655684;85;21414;-51
2022/07/04 03:38:00;;;;;;;24.67;17.70;;;;;;;19.35;90.19;94800.20;1650968;84;21026;-52
2022/07/04 03:40:30;;;;;;;23.00;17.60;;;;;;;19.32;90.49;94802.61;1617266;85;21098;-52
2022/07/04 03:42:59;;;;;;;23.50;16.87;;;;;;;19.34;90.70;94800.07;1660837;84;21017;-52
2022/07/04 03:45:27;;;;;;;22.75;17.70;;;;;;;19.39;90.72;94797.92;1665342;85;21219;-51
2022/07/04 03:47:56;;;;;;;30.02;19.07;;;;;;;19.44;90.36;94794.41;1667717;85;21130;-52
2022/07/04 03:50:25;;;;;;;32.73;25.10;;;;;;;19.45;90.24;94792.36;1620655;87;21034;-52
2022/07/04 03:52:53;;;;;;;25.20;17.45;;;;;;;19.46;90.20;94793.89;1603267;88;21034;-52
2022/07/04 03:55:21;;;;;;;22.85;16.97;;;;;;;19.46;90.42;94789.70;1661850;85;20987;-52
2022/07/04 03:57:49;;;;;;;21.75;16.17;;;;;;;19.50;90.34;94795.17;1662228;85;22456;-51
2022/07/04 04:00:18;;;;;;;27.35;17.87;;;;;;;19.51;90.10;94793.13;1670375;85;20979;-52
2022/07/04 04:02:47;;;;;;;31.68;18.52;;;;;;;19.51;90.08;94794.53;1661952;85;20978;-51
2022/07/04 04:05:28;;;;;;;23.07;18.60;;;;;;;19.51;89.72;94797.32;1683499;85;20974;-52
2022/07/04 04:07:58;;;;;;;22.02;17.07;;;;;;;19.48;89.65;94792.12;1675407;84;21014;-51
2022/07/04 04:10:27;;;;;;;24.30;17.25;;;;;;;19.50;89.96;94796.57;1657020;85;21174;-51
2022/07/04 04:12:55;;;;;;;25.08;17.98;;;;;;;19.57;89.80;94788.34;1665022;85;21195;-53
2022/07/04 04:15:24;;;;;;;30.32;19.30;;;;;;;19.59;89.73;94787.95;1651412;85;21035;-51
2022/07/04 04:17:52;;;;;;;27.70;18.90;;;;;;;19.63;89.66;94787.72;1671824;85;21073;-51
2022/07/04 04:20:21;;;;;;;33.02;19.85;;;;;;;19.67;89.70;94787.60;1659796;85;21466;-52
2022/07/04 04:22:50;;;;;;;26.42;17.00;;;;;;;19.77;89.48;94791.67;1664475;85;21297;-51
2022/07/04 04:25:19;;;;;;;26.05;16.90;;;;;;;19.86;89.09;94790.05;1669013;84;21133;-51
2022/07/04 04:27:47;;;;;;;31.77;18.37;;;;;;;19.92;88.57;94788.02;1633179;86;21133;-51
2022/07/04 04:30:16;;;;;;;30.70;19.02;;;;;;;19.96;88.32;94785.72;1635526;87;22597;-50
2022/07/04 04:32:45;;;;;;;25.65;18.48;;;;;;;20.02;88.45;94776.77;1613013;87;21090;-51
2022/07/04 04:35:13;;;;;;;41.08;19.73;;;;;;;20.12;87.94;94790.59;1663767;85;21216;-50
2022/07/04 04:37:40;;;;;;;23.73;17.82;;;;;;;20.15;87.63;94783.98;1632681;85;21699;-50
2022/07/04 04:40:10;;;;;;;26.37;19.32;;;;;;;20.24;87.51;94783.74;1656502;85;20998;-53
2022/07/04 04:42:38;;;;;;;26.40;19.85;;;;;;;20.34;87.08;94789.21;1667152;85;21118;-54
2022/07/04 04:45:07;;;;;;;37.15;19.60;;;;;;;20.41;86.53;94780.30;1661249;85;21150;-52
2022/07/04 04:47:36;;;;;;;23.45;17.80;;;;;;;20.47;86.35;94779.65;1659577;85;21271;-54
2022/07/04 04:50:05;;;;;;;23.98;17.15;;;;;;;20.56;85.85;94782.19;1667427;84;21156;-54
2022/07/04 04:52:35;;;;;;;28.07;18.07;;;;;;;20.63;85.45;94787.25;1669816;85;21184;-53
2022/07/04 04:55:04;;;;;;;30.10;20.52;;;;;;;20.72;85.37;94778.61;1655386;85;21122;-54
2022/07/04 04:57:32;;;;;;;40.38;20.43;;;;;;;20.80;85.12;94780.99;1659770;85;21046;-54
2022/07/04 05:00:00;;;;;;;27.60;18.17;;;;;;;20.91;84.71;94778.20;1660352;85;21245;-54
2022/07/04 05:02:30;;;;;;;24.63;17.10;;;;;;;21.00;84.21;94770.91;1661226;85;21070;-53
2022/07/04 05:04:59;;;;;;;26.42;17.90;;;;;;;21.07;83.68;94775.99;1660611;85;21014;-53
2022/07/04 05:07:27;;;;;;;23.55;17.90;;;;;;;21.13;83.38;94771.87;1664567;85;21205;-53
2022/07/04 05:10:02;;;;;;;24.55;19.32;;;;;;;21.23;82.69;94770.94;1656235;85;21015;-54
2022/07/04 05:12:33;;;;;;;25.35;19.40;;;;;;;21.27;82.32;94775.00;1661538;85;21215;-56
2022/07/04 05:15:07;;;;;;;21.30;16.27;;;;;;;21.35;81.90;94780.20;1662205;85;21129;-56
2022/07/04 05:17:43;;;;;;;24.43;17.80;;;;;;;21.42;81.46;94781.05;1666613;84;21038;-55
2022/07/04 05:20:12;;;;;;;26.35;17.65;;;;;;;21.49;81.05;94777.69;1629145;87;21075;-53
2022/07/04 05:22:40;;;;;;;27.82;18.10;;;;;;;21.59;80.85;94772.55;1601924;88;21000;-53
2022/07/04 05:25:09;;;;;;;24.30;17.32;;;;;;;21.66;80.03;94773.44;1603268;88;21257;-54
2022/07/04 05:27:38;;;;;;;21.60;16.07;;;;;;;21.68;79.86;94771.63;1658166;85;20959;-53
2022/07/04 05:30:07;;;;;;;22.40;16.40;;;;;;;21.76;79.24;94767.63;1672597;84;21441;-54
2022/07/04 05:32:38;;;;;;;26.27;17.23;;;;;;;21.82;78.81;94772.58;1670239;84;21007;-55
2022/07/04 05:35:06;;;;;;;30.68;17.87;;;;;;;;;;1650261;85;21474;-53
2022/07/04 05:37:35;;;;;;;21.93;17.27;;;;;;;21.98;78.36;94767.50;1667767;85;21113;-53
2022/07/04 05:40:04;;;;;;;21.55;16.97;;;;;;;22.07;77.95;94764.48;1657019;85;21157;-52
2022/07/04 05:42:34;;;;;;;22.82;15.90;;;;;;;22.16;77.40;94765.58;1674955;84;21039;-54
2022/07/04 05:45:02;;;;;;;20.62;14.68;;;;;;;22.30;76.81;94775.62;1627473;83;21038;-54
2022/07/04 05:47:30;;;;;;;22.15;15.38;;;;;;;22.42;75.84;94774.29;1660678;84;21627;-55
2022/07/04 05:49:58;;;;;;;22.52;15.48;;;;;;;22.49;75.45;94764.55;1658258;84;21089;-55
2022/07/04 05:52:27;;;;;;;19.12;16.32;;;;;;;22.57;75.23;94766.88;1675225;85;21140;-54
2022/07/04 05:54:55;;;;;;;22.22;15.78;;;;;;;22.65;74.92;94757.37;1667711;84;21019;-53
2022/07/04 05:57:24;;;;;;;21.05;14.53;;;;;;;22.71;74.68;94752.48;1641434;83;21188;-55
2022/07/04 05:59:51;;;;;;;18.57;14.85;;;;;;;22.81;74.27;94748.67;1633953;85;21707;-55
2022/07/04 06:02:20;;;;;;;21.70;15.85;;;;;;;22.93;73.76;94753.64;1655690;84;21134;-56
2022/07/04 06:04:48;;;;;;;23.25;16.15;;;;;;;23.01;73.22;94758.77;1680596;83;21549;-56
2022/07/04 06:07:16;;;;;;;27.60;16.87;;;;;;;23.07;73.01;94752.47;1661508;84;21015;-59
2022/07/04 06:09:44;;;;;;;23.85;16.20;;;;;;;23.15;72.68;94749.20;1652715;84;21636;-58
2022/07/04 06:12:11;;;;;;;20.17;15.32;;;;;;;23.23;72.04;94743.08;1656202;84;21089;-58
2022/07/04 06:14:39;;;;;;;23.25;15.15;;;;;;;23.30;71.49;94739.70;1654621;84;21742;-55
2022/07/04 06:17:07;;;;;;;21.82;15.50;;;;;;;23.34;71.14;94740.15;1632158;84;20960;-57
2022/07/04 06:19:35;;;;;;;22.52;16.07;;;;;;;23.41;71.06;94735.32;1656130;84;21893;-60
2022/07/04 06:22:03;;;;;;;18.00;15.00;;;;;;;23.51;71.00;94737.11;1660722;84;21070;-61
2022/07/04 06:24:31;;;;;;;20.37;16.52;;;;;;;23.60;71.12;94737.48;1658714;84;21077;-55
2022/07/04 06:26:58;;;;;;;20.43;15.98;;;;;;;23.68;70.61;94732.79;1660198;83;21915;-54
2022/07/04 06:29:25;;;;;;;19.52;14.80;;;;;;;23.76;70.02;94729.47;1658595;84;22116;-57
2022/07/04 06:31:53;;;;;;;22.30;16.27;;;;;;;23.85;70.02;94724.91;1657304;84;21164;-59
2022/07/04 06:37:06;;;;;;;27.73;16.85;;;;;;;24.04;69.32;94717.20;1658066;84;21501;-55
2022/07/04 06:39:33;;;;;;;25.77;17.50;;;;;;;24.11;69.08;94715.16;1660323;84;21522;-56
2022/07/04 06:42:01;;;;;;;19.45;16.75;;;;;;;24.21;68.98;94717.69;1653948;84;21504;-55
2022/07/04 06:44:30;;;;;;;33.02;23.90;;;;;;;24.31;68.90;94709.70;1634960;84;21088;-57
2022/07/04 06:46:58;;;;;;;25.27;17.00;;;;;;;24.41;67.94;94712.20;1652706;84;21594;-54
2022/07/04 06:49:25;;;;;;;19.75;14.80;;;;;;;24.50;68.01;94711.02;1612961;84;21496;-55
2022/07/04 06:51:55;;;;;;;17.90;14.75;;;;;;;24.60;67.52;94709.34;1651499;84;21156;-58
2022/07/04 06:54:23;;;;;;;21.48;15.10;;;;;;;24.72;67.09;94702.97;1656183;84;21041;-57
2022/07/04 06:56:51;;;;;;;25.43;15.08;;;;;;;24.84;66.40;94703.52;1629172;84;21037;-57
2022/07/04 06:59:18;;;;;;;19.05;15.60;;;;;;;24.96;66.13;94704.16;1665577;84;21025;-57
2022/07/04 07:01:55;;;;;;;19.00;13.48;;;;;;;25.03;64.77;94705.56;1619466;84;21114;-63
2022/07/04 07:04:27;;;;;;;21.40;14.35;;;;;;;25.11;63.71;94708.59;1658535;84;21054;-63
2022/07/04 07:06:55;;;;;;;16.23;14.53;;;;;;;25.20;63.29;94702.56;1656018;84;21002;-57
2022/07/04 07:09:22;;;;;;;16.45;13.32;;;;;;;25.27;63.19;94703.97;1656718;84;21006;-61
2022/07/04 07:11:49;;;;;;;14.38;12.80;;;;;;;25.38;62.56;94702.30;1634291;84;21701;-59
2022/07/04 07:14:17;;;;;;;16.32;12.60;;;;;;;25.48;61.49;94699.90;1659073;84;21033;-56
2022/07/04 07:16:45;;;;;;;21.52;13.98;;;;;;;25.55;60.67;94697.07;1634985;85;21214;-58
2022/07/04 07:19:12;;;;;;;16.60;14.03;;;;;;;25.63;61.28;94687.40;1660903;84;21171;-61
2022/07/04 07:21:40;;;;;;;16.05;12.78;;;;;;;25.78;61.43;94691.80;1662632;83;21023;-60
2022/07/04 07:24:07;;;;;;;18.77;13.05;;;;;;;25.88;60.23;94692.86;1655665;84;21625;-60
2022/07/04 07:26:35;;;;;;;18.55;12.80;;;;;;;26.02;59.96;94678.81;1650667;84;21073;-60
2022/07/04 07:29:04;;;;;;;15.25;12.15;;;;;;;26.18;58.50;94687.52;1632785;84;21073;-64
2022/07/04 07:31:31;;;;;;;15.15;11.60;;;;;;;26.29;58.42;94675.30;1661315;84;21059;-57
2022/07/04 07:33:59;;;;;;;14.95;11.50;;;;;;;26.44;57.56;94676.84;1629793;85;21182;-60
2022/07/04 07:36:26;;;;;;;16.93;11.50;;;;;;;26.59;56.22;94669.16;1660696;84;21011;-58
2022/07/04 07:38:55;;;;;;;17.67;10.15;;;;;;;26.72;54.17;94672.67;1660265;84;21124;-58
2022/07/04 07:41:23;;;;;;;14.20;10.30;;;;;;;26.88;51.89;94667.88;1665743;84;21156;-61
2022/07/04 07:43:51;;;;;;;14.23;10.50;;;;;;;27.03;51.82;94668.70;1638857;84;47636;-57
2022/07/04 07:46:18;;;;;;;14.45;10.20;;;;;;;27.17;51.96;94670.13;1657124;84;20971;-60
2022/07/04 07:48:46;;;;;;;12.60;10.85;;;;;;;27.31;51.81;94662.28;1633715;85;21021;-59
2022/07/04 07:51:15;;;;;;;14.85;10.40;;;;;;;27.45;52.64;94667.26;1644320;84;21581;-56
2022/07/04 07:53:42;;;;;;;9.63;8.60;;;;;;;27.56;48.89;94661.92;1660448;84;21230;-58
2022/07/04 07:56:10;;;;;;;8.43;6.90;;;;;;;27.69;46.76;94666.00;1654611;84;21132;-61
2022/07/04 07:58:39;;;;;;;9.40;7.00;;;;;;;27.80;44.34;94657.95;1661758;84;21106;-59
2022/07/04 08:01:06;;;;;;;10.38;8.18;;;;;;;27.91;43.66;94661.11;1656427;84;21016;-60
2022/07/04 08:06:19;;;;;;;9.53;7.97;;;;;;;28.12;44.42;94662.45;1666164;84;21237;-59
2022/07/04 08:08:46;;;;;;;12.50;7.78;;;;;;;28.22;42.79;94657.76;1656832;84;21077;-60
2022/07/04 08:11:14;;;;;;;7.83;6.80;;;;;;;28.31;42.32;94654.38;1657296;84;21148;-59
2022/07/04 08:13:41;;;;;;;8.73;6.22;;;;;;;28.43;41.25;94658.36;1646801;84;21034;-59
2022/07/04 08:16:09;;;;;;;11.70;7.42;;;;;;;28.56;41.34;94653.25;1658238;84;21077;-57
2022/07/04 08:18:37;;;;;;;6.35;5.62;;;;;;;28.68;40.28;94649.37;1658969;84;21336;-55
2022/07/04 08:21:05;;;;;;;6.60;5.95;;;;;;;28.71;38.33;94646.81;1621249;84;21176;-56
2022/07/04 08:23:33;;;;;;;13.85;6.03;;;;;;;28.69;38.45;94648.04;1655506;83;21036;-58
2022/07/04 08:26:00;;;;;;;11.80;4.78;;;;;;;28.75;37.96;94657.86;1666170;84;21460;-59
2022/07/04 08:28:28;;;;;;;10.10;5.85;;;;;;;28.80;35.16;94649.08;1635663;84;21061;-60
2022/07/04 08:30:56;;;;;;;9.58;5.60;;;;;;;28.83;36.71;94653.59;1655100;83;21805;-60
2022/07/04 08:33:23;;;;;;;8.18;5.90;;;;;;;28.87;36.10;94652.55;1656360;84;21005;-58
2022/07/04 08:35:51;;;;;;;11.53;5.65;;;;;;;28.93;37.56;94657.41;1663220;84;21542;-58
2022/07/04 08:38:18;;;;;;;10.38;5.40;;;;;;;29.02;36.77;94647.66;1655680;83;21009;-61
2022/07/04 08:40:47;;;;;;;8.53;6.40;;;;;;;29.13;37.00;94654.98;1653267;83;21056;-56
2022/07/04 08:43:15;;;;;;;12.40;5.67;;;;;;;29.31;38.21;94655.95;1656487;83;21203;-58
2022/07/04 08:45:43;;;;;;;10.95;5.28;;;;;;;29.49;36.31;94649.79;1654392;84;21512;-54
2022/07/04 08:48:10;;;;;;;8.05;5.78;;;;;;;29.57;35.45;94653.33;1653992;84;21701;-56
2022/07/04 08:50:50;;;;;;;10.40;5.72;;;;;;;29.60;35.64;94650.77;1654606;83;21114;-56
2022/07/04 08:53:20;;;;;;;9.03;5.87;;;;;;;29.59;35.89;94647.84;1664460;84;20999;-60
2022/07/04 08:58:37;;;;;;;7.65;5.37;;;;;;;29.55;35.58;94655.34;1661358;83;21145;-56
2022/07/04 09:01:07;;;;;;;6.83;6.12;;;;;;;29.71;35.43;94653.18;1653575;84;21010;-58
2022/07/04 09:03:35;;;;;;;18.87;6.97;;;;;;;29.84;36.24;94652.93;1659132;84;21534;-55
2022/07/04 09:06:02;;;;;;;17.57;5.45;;;;;;;29.96;35.83;94652.64;1655121;84;21032;-56
2022/07/04 09:08:30;;;;;;;7.30;4.97;;;;;;;30.07;35.40;94653.66;1654682;84;21211;-57
2022/07/04 09:10:57;;;;;;;7.40;5.87;;;;;;;30.21;34.46;94653.47;1657187;84;21422;-55
2022/07/04 09:13:25;;;;;;;7.30;6.30;;;;;;;30.33;34.51;94653.08;1648205;84;21074;-53
2022/07/04 09:15:52;;;;;;;7.83;5.62;;;;;;;30.44;35.67;94658.97;1653569;84;21021;-59
2022/07/04 09:18:28;;;;;;;8.53;5.97;;;;;;;30.58;36.66;94658.80;1646870;84;21030;-56
2022/07/04 09:20:59;;;;;;;6.45;5.05;;;;;;;30.72;35.31;94653.64;1645363;84;21313;-56
2022/07/04 09:23:32;;;;;;;7.40;6.12;;;;;;;30.89;33.59;94656.52;1659848;84;21015;-56
2022/07/04 09:26:21;;;;;;;10.48;6.87;;;;;;;31.04;34.53;94649.27;1663722;83;21139;-54
2022/07/04 09:28:56;;;;;;;6.20;5.10;;;;;;;31.24;34.50;94655.23;1630168;86;21030;-60
2022/07/04 09:31:29;;;;;;;7.75;5.92;;;;;;;31.40;33.12;94653.73;1657841;84;21033;-62
2022/07/04 09:34:03;;;;;;;6.22;5.62;;;;;;;31.43;33.09;94651.13;1658746;84;21796;-54
2022/07/04 09:36:36;;;;;;;6.15;5.15;;;;;;;31.39;33.26;94648.64;1659515;84;21133;-60
2022/07/04 09:39:14;;;;;;;9.98;5.72;;;;;;;31.15;32.79;94645.97;1650377;84;21566;-57
2022/07/04 09:42:01;;;;;;;6.08;5.47;;;;;;;30.92;33.40;94649.69;1661285;83;21235;-56
2022/07/04 09:44:46;;;;;;;7.90;5.87;;;;;;;30.68;33.71;94644.04;1655304;84;21057;-57
2022/07/04 09:47:28;;;;;;;6.70;5.30;;;;;;;30.40;32.80;94638.09;1657232;83;21095;-59
2022/07/04 09:50:05;;;;;;;6.75;5.55;;;;;;;30.29;34.16;94633.55;1652356;84;21068;-59
2022/07/04 09:52:49;;;;;;;8.13;5.22;;;;;;;30.41;34.88;94632.50;1659195;83;21007;-56
2022/07/04 09:55:39;;;;;;;8.85;4.78;;;;;;;30.65;34.12;94640.27;1639123;84;21535;-60
2022/07/04 09:58:10;;;;;;;5.78;5.10;;;;;;;30.95;33.00;94641.41;1661565;83;21065;-57
2022/07/04 10:00:40;;;;;;;10.43;5.67;;;;;;;31.15;33.45;94634.59;1646806;84;22325;-59
2022/07/04 10:03:28;;;;;;;6.17;5.03;;;;;;;31.37;33.67;94631.39;1658554;84;21137;-60
2022/07/04 10:06:11;;;;;;;5.03;4.58;;;;;;;31.55;33.62;94632.88;1635346;84;21048;-59
2022/07/04 10:08:40;;;;;;;11.15;5.67;;;;;;;31.64;32.38;94628.67;1659412;84;21010;-63
2022/07/04 10:11:07;;;;;;;9.78;5.62;;;;;;;31.66;31.52;94630.31;1653095;84;21454;-58
2022/07/04 10:13:37;;;;;;;9.53;4.53;;;;;;;31.71;32.29;94634.22;1660687;83;21102;-61
2022/07/04 10:16:05;;;;;;;6.95;4.90;;;;;;;31.87;33.33;94622.05;1655001;84;22266;-58
2022/07/04 10:18:34;;;;;;;5.60;4.42;;;;;;;32.07;32.58;94623.66;1658446;84;21067;-60
2022/07/04 10:21:02;;;;;;;10.08;5.62;;;;;;;32.29;31.83;94625.44;1661595;84;21023;-57
2022/07/04 10:23:34;;;;;;;6.67;4.60;;;;;;;32.47;30.96;94622.59;1654675;84;21603;-60
2022/07/04 10:25:59;;;;;;;5.37;4.60;;;;;;;32.57;29.92;94616.26;1653579;83;21122;-57
2022/07/04 10:28:27;;;;;;;4.87;4.37;;;;;;;32.70;29.74;94618.70;1660907;84;21652;-59
2022/07/04 10:30:56;;;;;;;6.80;4.12;;;;;;;32.77;30.12;94620.69;1660559;84;21085;-57
2022/07/04 10:33:29;;;;;;;5.17;4.65;;;;;;;32.83;30.04;94609.74;1647567;84;21109;-57
2022/07/04 10:36:03;;;;;;;7.15;4.40;;;;;;;32.89;30.36;94614.47;1643649;85;21537;-59
2022/07/04 10:38:33;;;;;;;6.08;4.62;;;;;;;33.12;29.94;94619.84;1658491;84;21085;-57
2022/07/04 10:41:05;;;;;;;6.92;4.35;;;;;;;33.35;29.05;94620.17;1662569;84;21069;-57
2022/07/04 10:43:37;;;;;;;7.10;4.62;;;;;;;33.37;29.45;94616.73;1628961;84;21073;-63
2022/07/04 10:46:19;;;;;;;4.83;4.40;;;;;;;33.28;29.21;94608.24;1662883;83;20993;-57
2022/07/04 10:48:57;;;;;;;5.67;4.45;;;;;;;33.23;29.27;94605.02;1664385;84;21069;-56
2022/07/04 10:51:50;;;;;;;6.78;5.20;;;;;;;33.21;28.84;94606.97;1659154;83;21081;-60
2022/07/04 10:54:31;;;;;;;7.80;4.62;;;;;;;33.34;28.25;94606.53;1658034;84;21054;-62
2022/07/04 10:57:20;;;;;;;9.05;5.08;;;;;;;33.67;28.78;94601.16;1660251;84;21141;-62
2022/07/04 11:00:03;;;;;;;4.95;4.45;;;;;;;34.06;27.87;94591.94;1658537;84;21073;-64
2022/07/04 11:02:35;;;;;;;4.83;4.37;;;;;;;34.52;28.67;94601.64;1657845;84;21233;-65
2022/07/04 11:05:13;;;;;;;5.35;4.83;;;;;;;34.90;28.28;94600.02;1660364;83;21249;-62
2022/07/04 11:07:45;;;;;;;9.20;5.25;;;;;;;35.10;27.30;94596.41;1661637;84;21803;-62
2022/07/04 11:10:21;;;;;;;5.85;5.25;;;;;;;35.21;27.03;94598.63;1661172;83;21719;-61
2022/07/04 11:13:00;;;;;;;6.58;4.53;;;;;;;35.34;26.10;94595.88;1662905;84;21026;-60
2022/07/04 11:15:40;;;;;;;10.75;4.62;;;;;;;35.59;25.63;94591.84;1653562;84;21103;-60
2022/07/04 11:18:13;;;;;;;5.47;4.70;;;;;;;36.00;27.12;94588.12;1661584;84;21907;-61
2022/07/04 11:20:46;;;;;;;7.30;4.37;;;;;;;36.41;25.86;94587.91;1666813;84;20998;-56
2022/07/04 11:23:21;;;;;;;4.42;4.03;;;;;;;36.68;24.69;94581.77;1655496;84;21201;-62
2022/07/04 11:25:50;;;;;;;4.83;4.40;;;;;;;36.94;23.91;94578.32;1655576;84;21131;-63
2022/07/04 11:28:32;;;;;;;6.92;4.30;;;;;;;37.37;24.75;94570.88;1660673;84;21152;-62
2022/07/04 11:31:02;;;;;;;4.10;3.70;;;;;;;37.56;23.40;94573.45;1661348;83;21259;-62
2022/07/04 11:33:32;;;;;;;5.58;5.08;;;;;;;37.71;23.49;94575.77;1660431;84;21085;-58
2022/07/04 11:36:06;;;;;;;5.40;4.17;;;;;;;37.44;23.41;94559.78;1657420;83;21483;-60
2022/07/04 11:38:55;;;;;;;7.55;4.60;;;;;;;37.02;23.56;94567.34;1656367;84;21028;-57
2022/07/04 11:47:18;;;;;;;6.72;6.08;;;;;;;37.02;25.29;94564.48;1662515;83;21525;-58
2022/07/04 11:49:55;;;;;;;5.70;4.72;;;;;;;37.22;26.21;94568.54;1659990;84;21100;-59
2022/07/04 11:52:26;;;;;;;5.50;4.92;;;;;;;37.10;26.34;94562.08;1655745;84;21001;-59